TimeCST,TemperatureF,Dew PointF,Humidity,Sea Level PressureIn,VisibilityMPH,Wind Direction,Wind SpeedMPH,Gust SpeedMPH,PrecipitationIn,Events,Conditions,WindDirDegrees,DateUTC
12:56 AM,16.0,8.1,71,30.04,-9999.0,Calm,Calm,-,N/A,,Unknown,0,2013-01-02 06:56:00
1:56 AM,17.1,9.0,71,30.03,-9999.0,NNW,4.6,-,N/A,,Unknown,330,2013-01-02 07:56:00
2:56 AM,18.0,10.9,74,30.03,-9999.0,Calm,Calm,-,N/A,,Unknown,0,2013-01-02 08:56:00
3:56 AM,19.0,12.0,74,30.03,-9999.0,Calm,Calm,-,N/A,,Unknown,0,2013-01-02 09:56:00
4:56 AM,19.0,12.9,77,30.02,-9999.0,NNE,3.5,-,N/A,,Unknown,30,2013-01-02 10:56:00
5:56 AM,19.9,14.0,78,30.02,-9999.0,NE,4.6,-,N/A,,Unknown,40,2013-01-02 11:56:00
6:56 AM,21.9,16.0,78,30.01,-9999.0,Variable,3.5,-,N/A,,Unknown,0,2013-01-02 12:56:00
7:56 AM,23.0,19.0,85,30.00,-9999.0,Variable,4.6,-,N/A,,Unknown,0,2013-01-02 13:56:00
8:56 AM,27.0,21.0,78,30.00,-9999.0,ESE,4.6,-,N/A,,Unknown,110,2013-01-02 14:56:00
9:56 AM,27.0,19.9,75,30.01,-9999.0,SSW,8.1,-,N/A,,Unknown,210,2013-01-02 15:56:00
10:56 AM,27.0,19.9,75,30.02,-9999.0,SSW,13.8,-,N/A,,Unknown,200,2013-01-02 16:56:00
11:56 AM,26.1,19.9,78,30.00,-9999.0,SSW,8.1,-,N/A,,Unknown,200,2013-01-02 17:56:00
12:56 PM,26.1,19.0,75,29.99,-9999.0,South,9.2,-,N/A,,Unknown,190,2013-01-02 18:56:00
1:56 PM,25.0,19.0,78,29.99,-9999.0,South,4.6,-,N/A,,Unknown,190,2013-01-02 19:56:00
2:56 PM,25.0,19.0,78,29.99,-9999.0,SW,3.5,-,N/A,,Unknown,220,2013-01-02 20:56:00
3:56 PM,26.1,19.9,78,30.01,-9999.0,SW,5.8,-,N/A,,Unknown,230,2013-01-02 21:56:00
4:56 PM,26.1,19.9,78,30.01,-9999.0,South,9.2,-,N/A,,Unknown,190,2013-01-02 22:56:00
5:56 PM,26.1,21.0,81,30.02,-9999.0,SSW,8.1,-,N/A,,Unknown,200,2013-01-02 23:56:00
6:56 PM,27.0,19.0,72,30.01,-9999.0,SSW,8.1,-,N/A,,Unknown,210,2013-01-03 00:56:00
7:56 PM,26.1,19.0,75,30.01,-9999.0,Calm,Calm,-,N/A,,Unknown,0,2013-01-03 01:56:00
8:56 PM,25.0,19.0,78,30.01,-9999.0,NW,4.6,-,N/A,,Unknown,320,2013-01-03 02:56:00
9:56 PM,25.0,18.0,75,30.02,-9999.0,NNW,5.8,-,N/A,,Unknown,330,2013-01-03 03:56:00
10:56 PM,25.0,17.1,72,30.01,-9999.0,Calm,Calm,-,N/A,,Unknown,0,2013-01-03 04:56:00
11:56 PM,25.0,16.0,69,30.01,-9999.0,Calm,Calm,-,N/A,,Unknown,0,2013-01-03 05:56:00